• Join FlightAware (Why Join?)
  • Login
  • US Flag 
04:46AM EDT


 

Airport Tracker/Info


-or-


 

Live Flight TrackerFlight Track Log ✈ DAL6234 ✈ 29-Apr-2013 ✈ KSYR - KLGA

Flight Track Log - Related Links

Times and Time Zones

All times are in EDT time to prevent confusion due to time zone crossing. See the DAL6234 flight status page for this flight to view local times or setup timezone preferences in your user account.

Time Position Orientation Groundspeed Altitude Reporting Facility
EDT Latitude Longitude Course Direction KTS MPH feet Rate Location/Type
06:39PM 43.1108 -76.0950 119° Southeast 136 157 1,500  Level Boston Center
06:41PM 43.0644 -75.9814 119° Southeast 208 239 6,400 2,460 Climbing Boston Center
06:42PM 43.0103 -75.9131 137° Southeast 242 278 8,600 2,520 Climbing Boston Center
06:43PM 42.9500 -75.8386 138° Southeast 269 310 11,500 2,400 Climbing Boston Center
06:44PM 42.8814 -75.7556 138° Southeast 301 346 13,500 1,980 Climbing Boston Center
06:45PM 42.8111 -75.6667 137° Southeast 333 383 15,500 1,980 Climbing Boston Center
06:46PM 42.7347 -75.5694 137° Southeast 359 413 17,500 1,200 Climbing Boston Center
06:47PM 42.6600 -75.4781 138° Southeast 365 420 18,000 240 Climbing Boston Center
06:48PM 42.5983 -75.3622 126° Southeast 370 426 18,000  Level Boston Center
06:49PM 42.5450 -75.2469 122° Southeast 370 426 18,000  Level Boston Center
06:50PM 42.4936 -75.1292 121° Southeast 365 420 18,000  Level Boston Center
06:51PM 42.4400 -75.0089 121° Southeast 365 420 18,000  Level Boston Center
06:52PM 42.3864 -74.8886 121° Southeast 371 427 18,000  Level Boston Center
06:53PM 42.3286 -74.7628 122° Southeast 385 443 18,000  Level Boston Center
06:54PM 42.2769 -74.6428 120° Southeast 385 443 18,000  Level Boston Center
06:55PM 42.2208 -74.5231 122° Southeast 385 443 18,000  Level Boston Center
06:56PM 42.1728 -74.4178 122° Southeast 380 437 18,000  Level Boston Center
06:57PM 42.1144 -74.2872 121° Southeast 373 429 18,000  Level Boston Center
06:58PM 42.0658 -74.1908 124° Southeast 365 420 18,000  Level Boston Center
06:59PM 42.0006 -74.0994 134° Southeast 339 390 18,000  Level Boston Center
07:00PM 41.8992 -74.0522 161° South 338 389 18,000 -420 Level Boston Center
07:01PM 41.8206 -74.0139 160° South 344 396 17,200 -1,260 Descending Boston Center
07:02PM 41.7211 -73.9697 162° South 344 396 15,500 -1,620 Descending Boston Center
07:03PM 41.6444 -73.9347 161° South 337 388 14,000 -1,620 Descending Boston Center
07:04PM 41.5511 -73.8936 162° South 331 381 12,300 -1,620 Descending Boston Center
07:04PM 41.5167 -73.8833 167° South 312 359 11,700 -1,440 Descending New York TRACON
07:05PM 41.4333 -73.8333 156° South 296 341 10,300 -1,500 Descending New York TRACON
07:06PM 41.3667 -73.8000 159° South 281 323 8,800 -1,560 Descending New York TRACON
07:07PM 41.3000 -73.7500 151° Southeast 278 320 7,200 -1,440 Descending New York TRACON
07:08PM 41.2333 -73.7000 151° Southeast 259 298 6,000 -1,200 Descending New York TRACON
07:09PM 41.1833 -73.6500 143° Southeast 248 285 4,800 -960 Descending New York TRACON
07:10PM 41.1167 -73.6000 151° Southeast 243 280 4,100 -360 Descending New York TRACON
07:11PM 41.0667 -73.6333 207° Southwest 252 290 4,100 -60 Level New York TRACON
07:12PM 41.0000 -73.6833 210° Southwest 252 290 4,000 -540 Descending New York TRACON
07:13PM 40.9500 -73.7333 217° Southwest 242 278 3,100 -600 Descending New York TRACON
07:14PM 40.9000 -73.7833 217° Southwest 206 237 2,900 -660 Descending New York TRACON
07:15PM 40.8500 -73.8167 207° Southwest 169 194 1,800 -960 Descending New York TRACON
07:16PM 40.8333 -73.8333 217° Southwest 127 146 1,000 -720 Descending New York TRACON
07:17PM 40.8000 -73.8667 217° Southwest 132 152 400 -600 Descending New York TRACON
07:19PM 40.7772 -73.8726 180° South  Level Estimated
07:26PM 40.7772 -73.8726 180° South  Level Estimated